Time;durP1;ratioP1;P1;durP2;ratioP2;P2;SDS_P1;SDS_P2;PMS_P1;PMS_P2;Temp;Humidity;BMP_temperature;BMP_pressure;BME280_temperature;BME280_humidity;BME280_pressure;Samples;Min_cycle;Max_cycle;Signal;HPM_P1;HPM_P2
2021/12/14 00:01:35;;;;;;;;;;;9.30;99.90;;;;;;5077702;28;19908;-82
2021/12/14 00:04:05;;;;;;;;;;;9.30;1.00;;;;;;5081043;28;20416;-82
2021/12/14 00:06:31;;;;;;;;;;;9.30;1.00;;;;;;5079550;28;19909;-82
2021/12/14 00:08:58;;;;;;;;;;;9.30;1.00;;;;;;5085493;28;19920;-82
2021/12/14 00:16:38;;;;;;;;;;;9.30;1.00;;;;;;5074702;28;20360;-82
2021/12/14 00:19:04;;;;;;;;;;;9.30;1.00;;;;;;5078435;28;19916;-82
2021/12/14 00:21:31;;;;;;;;;;;9.20;1.00;;;;;;5077822;28;19935;-82
2021/12/14 00:24:14;;;;;;;;;;;9.20;1.00;;;;;;5078769;28;19915;-82
2021/12/14 00:26:43;;;;;;;;;;;9.20;6.60;;;;;;5077843;28;20415;-82
2021/12/14 00:29:12;;;;;;;;;;;9.20;99.90;;;;;;5084157;28;19912;-82
2021/12/14 00:31:38;;;;;;;;;;;9.20;77.00;;;;;;5077109;28;19912;-82
2021/12/14 00:34:05;;;;;;;;;;;9.20;91.60;;;;;;5078527;28;19969;-83
2021/12/14 00:36:30;;;;;;;;;;;9.20;93.70;;;;;;5080361;28;20027;-82
2021/12/14 00:38:57;;;;;;;;;;;9.20;99.90;;;;;;5081767;28;19951;-82
2021/12/14 00:41:27;;;;;;;;;;;9.20;84.20;;;;;;5080603;28;20180;-83
2021/12/14 00:43:53;;;;;;;;;;;9.20;99.90;;;;;;5080854;28;19912;-83
2021/12/14 00:46:19;;;;;;;;;;;9.10;99.90;;;;;;5080885;28;20359;-83
2021/12/14 00:48:45;;;;;;;;;;;9.10;99.90;;;;;;5079912;28;19983;-83
2021/12/14 00:51:12;;;;;;;;;;;9.10;1.00;;;;;;5080216;28;20012;-83
2021/12/14 00:53:38;;;;;;;;;;;9.10;99.90;;;;;;5072741;28;19912;-83
2021/12/14 00:56:05;;;;;;;;;;;9.10;99.90;;;;;;5080779;28;19927;-83
2021/12/14 00:58:30;;;;;;;;;;;9.00;99.90;;;;;;5083274;28;19912;-83
2021/12/14 01:00:56;;;;;;;;;;;9.00;1.00;;;;;;5080954;28;19920;-82
2021/12/14 01:03:22;;;;;;;;;;;9.00;31.50;;;;;;5086427;28;20007;-83
2021/12/14 01:05:49;;;;;;;;;;;9.00;99.90;;;;;;5072122;28;20376;-83
2021/12/14 01:08:16;;;;;;;;;;;9.00;99.90;;;;;;5078177;28;19916;-83
2021/12/14 01:10:46;;;;;;;;;;;9.00;99.90;;;;;;5077579;28;20024;-83
2021/12/14 01:13:13;;;;;;;;;;;9.00;99.90;;;;;;5078531;28;19925;-83
2021/12/14 01:18:29;;;;;;;;;;;9.00;99.90;;;;;;5079571;28;19916;-83
2021/12/14 01:20:59;;;;;;;;;;;9.00;99.90;;;;;;5074181;28;20019;-82
2021/12/14 01:23:31;;;;;;;;;;;8.90;99.90;;;;;;5067527;28;20004;-82
2021/12/14 01:26:02;;;;;;;;;;;8.90;99.90;;;;;;5073395;28;19923;-83
2021/12/14 01:28:28;;;;;;;;;;;8.90;1.00;;;;;;5070844;28;19916;-82
2021/12/14 01:31:11;;;;;;;;;;;8.90;1.00;;;;;;5077344;28;19917;-82
2021/12/14 01:33:39;;;;;;;;;;;8.90;1.00;;;;;;5077690;28;19958;-83
2021/12/14 01:36:10;;;;;;;;;;;8.90;1.00;;;;;;5078601;28;19917;-83
2021/12/14 01:38:46;;;;;;;;;;;8.90;1.00;;;;;;5079013;28;19912;-83
2021/12/14 01:41:13;;;;;;;;;;;8.90;1.00;;;;;;5076471;28;20392;-82
2021/12/14 01:43:39;;;;;;;;;;;8.90;1.00;;;;;;5076698;28;19913;-82
2021/12/14 01:46:11;;;;;;;;;;;8.80;1.00;;;;;;5077601;28;19924;-83
2021/12/14 01:48:36;;;;;;;;;;;8.80;35.30;;;;;;5079212;28;19932;-82
2021/12/14 01:51:04;;;;;;;;;;;8.80;99.90;;;;;;5082481;28;19934;-82
2021/12/14 01:53:30;;;;;;;;;;;8.80;99.90;;;;;;5076955;28;19965;-83
2021/12/14 01:55:57;;;;;;;;;;;8.80;99.90;;;;;;5078160;28;19913;-83
2021/12/14 01:58:25;;;;;;;;;;;8.70;99.90;;;;;;5079108;28;19909;-83
2021/12/14 02:00:56;;;;;;;;;;;8.70;99.90;;;;;;5078594;28;19916;-82
2021/12/14 02:03:28;;;;;;;;;;;8.70;99.90;;;;;;5070790;28;19916;-82
2021/12/14 02:05:53;;;;;;;;;;;8.70;99.90;;;;;;5080444;28;19920;-83
2021/12/14 02:08:21;;;;;;;;;;;8.70;99.90;;;;;;5080767;28;19939;-82
2021/12/14 02:10:47;;;;;;;;;;;8.70;99.90;;;;;;5082090;28;20339;-83
2021/12/14 02:13:21;;;;;;;;;;;8.70;99.90;;;;;;5077553;28;19915;-82
2021/12/14 02:15:46;;;;;;;;;;;8.70;99.90;;;;;;5081881;28;19965;-82
2021/12/14 02:18:14;;;;;;;;;;;8.60;99.90;;;;;;5079125;28;20003;-82
2021/12/14 02:20:56;;;;;;;;;;;8.60;99.90;;;;;;5078159;28;19973;-83
2021/12/14 02:23:22;;;;;;;;;;;8.60;99.90;;;;;;5064097;28;19908;-83
2021/12/14 02:25:48;;;;;;;;;;;8.70;99.90;;;;;;5077841;28;20026;-83
2021/12/14 02:28:18;;;;;;;;;;;8.70;99.90;;;;;;5081882;28;19995;-83
2021/12/14 02:30:44;;;;;;;;;;;8.70;99.90;;;;;;5080964;28;20400;-83
2021/12/14 02:33:11;;;;;;;;;;;8.70;99.90;;;;;;5082673;28;19912;-83
2021/12/14 02:35:37;;;;;;;;;;;8.70;99.90;;;;;;5081916;28;20379;-82
2021/12/14 02:38:06;;;;;;;;;;;8.70;99.90;;;;;;5079291;28;19921;-82
2021/12/14 02:43:18;;;;;;;;;;;8.60;99.90;;;;;;5064541;28;19924;-82
2021/12/14 02:45:44;;;;;;;;;;;8.60;99.90;;;;;;5077902;28;19920;-83
2021/12/14 02:48:09;;;;;;;;;;;8.60;99.90;;;;;;5081714;28;19908;-82
2021/12/14 02:50:35;;;;;;;;;;;8.60;99.90;;;;;;5082288;28;20295;-83
2021/12/14 02:53:01;;;;;;;;;;;8.60;99.90;;;;;;5081623;28;19915;-82
2021/12/14 02:55:27;;;;;;;;;;;8.60;99.90;;;;;;5076158;28;19912;-82
2021/12/14 02:57:54;;;;;;;;;;;8.60;99.90;;;;;;5078478;28;20249;-82
2021/12/14 03:00:22;;;;;;;;;;;8.60;99.90;;;;;;5076465;28;19919;-82
2021/12/14 03:02:47;;;;;;;;;;;8.60;99.90;;;;;;5079020;28;19935;-83
2021/12/14 03:05:16;;;;;;;;;;;8.60;99.90;;;;;;5077653;28;19916;-82
2021/12/14 03:07:44;;;;;;;;;;;8.60;99.90;;;;;;5077178;28;19947;-82
2021/12/14 03:12:45;;;;;;;;;;;8.60;99.90;;;;;;5074505;28;19941;-83
2021/12/14 03:15:33;;;;;;;;;;;8.60;99.90;;;;;;5078013;28;19974;-82
2021/12/14 03:18:01;;;;;;;;;;;8.60;99.90;;;;;;5075000;28;19916;-82
2021/12/14 03:20:32;;;;;;;;;;;8.60;99.90;;;;;;5077863;28;19905;-83
2021/12/14 03:23:09;;;;;;;;;;;8.60;99.90;;;;;;5076650;28;19916;-83
2021/12/14 03:25:37;;;;;;;;;;;8.60;99.90;;;;;;5079240;28;19909;-83
2021/12/14 03:28:03;;;;;;;;;;;8.60;99.90;;;;;;5073844;28;19913;-83
2021/12/14 03:30:32;;;;;;;;;;;8.60;99.90;;;;;;5077364;28;20348;-83
2021/12/14 03:32:59;;;;;;;;;;;8.60;1.00;;;;;;5076609;28;19968;-83
2021/12/14 03:35:54;;;;;;;;;;;8.50;1.00;;;;;;5078627;28;19909;-83
2021/12/14 03:38:22;;;;;;;;;;;8.50;1.00;;;;;;5064173;28;19917;-82
2021/12/14 03:41:06;;;;;;;;;;;8.50;1.00;;;;;;5081670;28;19908;-83
2021/12/14 03:43:32;;;;;;;;;;;8.50;1.00;;;;;;5080611;28;19908;-82
2021/12/14 03:45:58;;;;;;;;;;;8.50;1.00;;;;;;5072744;28;19925;-83
2021/12/14 03:48:25;;;;;;;;;;;8.50;1.00;;;;;;5079083;28;20352;-83
2021/12/14 03:50:51;;;;;;;;;;;8.50;1.00;;;;;;5085260;28;20509;-83
2021/12/14 03:53:17;;;;;;;;;;;8.40;1.00;;;;;;5082406;28;19926;-83
2021/12/14 03:55:45;;;;;;;;;;;8.50;1.00;;;;;;5085878;28;20007;-83
2021/12/14 03:58:13;;;;;;;;;;;8.50;1.00;;;;;;5080970;28;19916;-83
2021/12/14 04:00:41;;;;;;;;;;;8.40;1.00;;;;;;5086251;28;20297;-83
2021/12/14 04:03:10;;;;;;;;;;;8.40;1.00;;;;;;5089845;28;19912;-83
2021/12/14 04:05:36;;;;;;;;;;;8.40;1.00;;;;;;5081124;28;19920;-83
2021/12/14 04:08:02;;;;;;;;;;;8.40;1.00;;;;;;5079240;28;20330;-83
2021/12/14 04:10:31;;;;;;;;;;;8.40;1.00;;;;;;5080751;28;20007;-83
2021/12/14 04:12:57;;;;;;;;;;;8.40;1.00;;;;;;5079981;28;19920;-83
2021/12/14 04:15:22;;;;;;;;;;;8.40;1.00;;;;;;5080935;28;20279;-83
2021/12/14 04:17:48;;;;;;;;;;;8.40;1.00;;;;;;5079045;28;19913;-83
2021/12/14 04:20:25;;;;;;;;;;;8.40;1.00;;;;;;5078869;28;19920;-83
2021/12/14 04:22:52;;;;;;;;;;;8.40;1.00;;;;;;5075753;28;20323;-83
2021/12/14 04:25:18;;;;;;;;;;;8.30;1.00;;;;;;5078288;28;19927;-83
2021/12/14 04:27:45;;;;;;;;;;;8.30;1.00;;;;;;5087233;28;20288;-84
2021/12/14 04:30:12;;;;;;;;;;;8.30;1.00;;;;;;5086272;28;19920;-82
2021/12/14 04:32:37;;;;;;;;;;;8.30;1.00;;;;;;5081494;28;20003;-83
2021/12/14 04:35:03;;;;;;;;;;;8.30;1.00;;;;;;5079804;28;20038;-83
2021/12/14 04:37:30;;;;;;;;;;;8.30;1.00;;;;;;5079334;28;19999;-83
2021/12/14 04:40:12;;;;;;;;;;;8.30;1.00;;;;;;5080192;28;19913;-83
2021/12/14 04:53:37;;;;;;;;;;;8.30;1.00;;;;;;5077915;28;20303;-82
2021/12/14 04:56:04;;;;;;;;;;;8.30;1.00;;;;;;5078896;28;19916;-83
2021/12/14 04:58:31;;;;;;;;;;;8.30;1.00;;;;;;5079681;28;19912;-83
2021/12/14 05:00:57;;;;;;;;;;;8.30;1.00;;;;;;5079419;28;19916;-83
2021/12/14 05:03:25;;;;;;;;;;;8.30;1.00;;;;;;5079420;28;19991;-83
2021/12/14 05:06:00;;;;;;;;;;;8.30;1.00;;;;;;5074690;28;19916;-83
2021/12/14 05:10:59;;;;;;;;;;;8.20;1.00;;;;;;5069002;28;19917;-82
2021/12/14 05:13:26;;;;;;;;;;;8.20;1.00;;;;;;5081404;28;19912;-83
2021/12/14 05:15:51;;;;;;;;;;;8.30;1.00;;;;;;5075313;28;20372;-83
2021/12/14 05:18:17;;;;;;;;;;;8.20;1.00;;;;;;5079087;28;19930;-83
2021/12/14 05:20:44;;;;;;;;;;;8.20;1.00;;;;;;5080963;28;19925;-82
2021/12/14 05:23:10;;;;;;;;;;;8.20;1.00;;;;;;5075342;28;19913;-83
2021/12/14 05:25:38;;;;;;;;;;;8.20;1.00;;;;;;5078797;28;19923;-83
2021/12/14 05:28:08;;;;;;;;;;;8.20;1.00;;;;;;5079863;28;19973;-83
2021/12/14 05:30:37;;;;;;;;;;;8.20;1.00;;;;;;5089936;28;19924;-84
2021/12/14 05:33:08;;;;;;;;;;;8.20;1.00;;;;;;5081144;28;19912;-83
2021/12/14 05:35:34;;;;;;;;;;;8.20;1.00;;;;;;5080602;28;19924;-83
2021/12/14 05:38:02;;;;;;;;;;;8.20;1.00;;;;;;5079037;28;19908;-83
2021/12/14 05:43:07;;;;;;;;;;;8.20;1.00;;;;;;5077189;28;19920;-83
2021/12/14 05:45:38;;;;;;;;;;;8.20;1.00;;;;;;5070599;28;20437;-82
2021/12/14 05:48:05;;;;;;;;;;;8.20;1.00;;;;;;5078053;28;19909;-83
2021/12/14 05:50:32;;;;;;;;;;;8.20;1.00;;;;;;5069156;28;19920;-83
2021/12/14 05:52:58;;;;;;;;;;;8.30;1.00;;;;;;5076215;28;19956;-82
2021/12/14 05:55:26;;;;;;;;;;;8.30;1.00;;;;;;5069594;28;20287;-83
2021/12/14 05:57:52;;;;;;;;;;;8.20;1.00;;;;;;5075208;28;19909;-82
2021/12/14 06:00:18;;;;;;;;;;;8.20;1.00;;;;;;5065307;28;19913;-82
2021/12/14 06:02:44;;;;;;;;;;;8.20;1.00;;;;;;5077277;28;20017;-82
2021/12/14 06:05:11;;;;;;;;;;;8.20;1.00;;;;;;5069978;28;20008;-82
2021/12/14 06:07:36;;;;;;;;;;;8.20;1.00;;;;;;5075375;28;20050;-82
2021/12/14 06:10:02;;;;;;;;;;;8.20;1.00;;;;;;5076242;28;20419;-82
2021/12/14 06:12:28;;;;;;;;;;;8.20;1.00;;;;;;5076531;28;19913;-83
2021/12/14 06:14:57;;;;;;;;;;;8.20;1.00;;;;;;5077737;28;20386;-83
2021/12/14 06:17:26;;;;;;;;;;;8.20;1.00;;;;;;5077829;28;19954;-83
2021/12/14 06:19:54;;;;;;;;;;;8.20;1.00;;;;;;5077489;28;20470;-83
2021/12/14 06:22:20;;;;;;;;;;;8.20;1.00;;;;;;5071298;28;19950;-83
2021/12/14 06:24:51;;;;;;;;;;;8.20;1.00;;;;;;5075591;28;19992;-83
2021/12/14 06:27:17;;;;;;;;;;;8.20;1.00;;;;;;5076070;28;19913;-83
2021/12/14 06:29:45;;;;;;;;;;;8.20;1.00;;;;;;5073405;28;19919;-82
2021/12/14 06:32:13;;;;;;;;;;;8.20;1.00;;;;;;5078005;28;19912;-83
2021/12/14 06:34:42;;;;;;;;;;;8.20;1.00;;;;;;5082524;28;19912;-83
2021/12/14 06:37:29;;;;;;;;;;;8.20;1.00;;;;;;5077022;28;19927;-82
2021/12/14 06:40:15;;;;;;;;;;;8.20;1.00;;;;;;5070721;28;19927;-82
2021/12/14 06:42:41;;;;;;;;;;;8.20;1.00;;;;;;5075882;28;19927;-83
2021/12/14 06:45:10;;;;;;;;;;;8.20;1.00;;;;;;5077754;28;20338;-83
2021/12/14 06:47:36;;;;;;;;;;;8.20;1.00;;;;;;5079312;28;19913;-83
2021/12/14 06:50:07;;;;;;;;;;;8.20;1.00;;;;;;5081322;28;20003;-82
2021/12/14 06:52:34;;;;;;;;;;;8.10;1.00;;;;;;5076116;28;20564;-83
2021/12/14 06:54:59;;;;;;;;;;;8.10;1.00;;;;;;5078535;28;19932;-83
2021/12/14 06:57:25;;;;;;;;;;;8.10;1.00;;;;;;5060905;28;19923;-83
2021/12/14 06:59:53;;;;;;;;;;;8.10;1.00;;;;;;5077881;28;19947;-83
2021/12/14 07:02:20;;;;;;;;;;;8.10;1.00;;;;;;5073123;28;19913;-83
2021/12/14 07:04:49;;;;;;;;;;;8.20;1.00;;;;;;5078555;28;19943;-83
2021/12/14 07:07:17;;;;;;;;;;;8.30;1.00;;;;;;5076439;28;19912;-83
2021/12/14 07:09:46;;;;;;;;;;;8.30;1.00;;;;;;5077796;28;19983;-83
2021/12/14 07:12:17;;;;;;;;;;;8.30;1.00;;;;;;5074782;28;19920;-83
2021/12/14 07:14:45;;;;;;;;;;;8.40;1.00;;;;;;5077740;28;19986;-82
2021/12/14 07:17:19;;;;;;;;;;;8.40;1.00;;;;;;5079607;28;19958;-83
2021/12/14 07:19:55;;;;;;;;;;;8.40;1.00;;;;;;5091987;28;19979;-84
2021/12/14 07:22:24;;;;;;;;;;;8.40;1.00;;;;;;5090707;28;19944;-84
2021/12/14 07:25:16;;;;;;;;;;;8.40;1.00;;;;;;5084177;28;19978;-84
2021/12/14 07:27:42;;;;;;;;;;;8.40;1.00;;;;;;5079741;28;20256;-83
2021/12/14 07:30:11;;;;;;;;;;;8.40;1.00;;;;;;5081707;28;19916;-83
2021/12/14 07:32:39;;;;;;;;;;;8.40;1.00;;;;;;5082387;28;20322;-83
2021/12/14 07:35:33;;;;;;;;;;;8.40;1.00;;;;;;5073538;28;19913;-83
2021/12/14 07:38:01;;;;;;;;;;;8.40;1.00;;;;;;5073228;28;19920;-83
2021/12/14 07:40:33;;;;;;;;;;;8.40;1.00;;;;;;5077898;28;19931;-84
2021/12/14 07:43:05;;;;;;;;;;;8.40;1.00;;;;;;5080454;28;19908;-83
2021/12/14 07:45:31;;;;;;;;;;;8.40;1.00;;;;;;5076031;28;19935;-83
2021/12/14 07:47:56;;;;;;;;;;;8.40;1.00;;;;;;5072666;28;20374;-84
2021/12/14 07:50:35;;;;;;;;;;;8.40;1.00;;;;;;5076411;28;20291;-84
2021/12/14 07:53:00;;;;;;;;;;;8.40;1.00;;;;;;5078894;28;19919;-84
2021/12/14 07:55:27;;;;;;;;;;;8.40;1.00;;;;;;5077868;28;19916;-84
2021/12/14 07:57:52;;;;;;;;;;;8.40;1.00;;;;;;5079732;28;20430;-84
2021/12/14 08:00:25;;;;;;;;;;;8.40;1.00;;;;;;5089386;28;19959;-83
2021/12/14 08:02:55;;;;;;;;;;;8.40;1.00;;;;;;5074864;28;20368;-84
2021/12/14 08:05:24;;;;;;;;;;;8.50;1.00;;;;;;5077867;28;19916;-83
2021/12/14 08:07:55;;;;;;;;;;;8.50;1.00;;;;;;5082424;28;19970;-83
2021/12/14 08:10:24;;;;;;;;;;;8.50;1.00;;;;;;5081511;28;19916;-83
2021/12/14 08:12:51;;;;;;;;;;;8.50;1.00;;;;;;5082234;28;19920;-82
2021/12/14 08:15:51;;;;;;;;;;;8.50;1.00;;;;;;5078630;28;19935;-83
2021/12/14 08:18:17;;;;;;;;;;;8.50;1.00;;;;;;5071626;28;19909;-84
2021/12/14 08:20:57;;;;;;;;;;;8.60;1.00;;;;;;5088076;28;19923;-83
2021/12/14 08:23:26;;;;;;;;;;;8.60;1.00;;;;;;5084592;28;19958;-84
2021/12/14 08:25:53;;;;;;;;;;;8.60;1.00;;;;;;5091750;28;19940;-83
2021/12/14 08:28:21;;;;;;;;;;;8.60;1.00;;;;;;5085420;28;20271;-83
2021/12/14 08:31:01;;;;;;;;;;;8.60;1.00;;;;;;5084830;28;19919;-83
2021/12/14 08:33:27;;;;;;;;;;;8.60;1.00;;;;;;5087091;28;19916;-85
2021/12/14 08:35:53;;;;;;;;;;;8.60;1.00;;;;;;5087058;28;19922;-83
2021/12/14 08:38:19;;;;;;;;;;;8.60;1.00;;;;;;5086735;28;19913;-83
2021/12/14 08:40:50;;;;;;;;;;;8.60;1.00;;;;;;5085531;28;19913;-83
2021/12/14 08:43:24;;;;;;;;;;;8.60;1.00;;;;;;5082313;28;19923;-83
2021/12/14 08:45:52;;;;;;;;;;;8.60;1.00;;;;;;5080120;28;19928;-83
2021/12/14 08:48:20;;;;;;;;;;;8.60;1.00;;;;;;5077684;28;19913;-83
2021/12/14 08:50:54;;;;;;;;;;;8.60;1.00;;;;;;5081596;28;20049;-83
2021/12/14 08:53:20;;;;;;;;;;;8.60;1.00;;;;;;5070435;28;19913;-83
2021/12/14 08:55:47;;;;;;;;;;;8.60;1.00;;;;;;5080706;28;19963;-83
2021/12/14 08:58:13;;;;;;;;;;;8.60;1.00;;;;;;5085651;28;19920;-83
2021/12/14 09:00:45;;;;;;;;;;;8.60;1.00;;;;;;5077820;28;19917;-83
2021/12/14 09:03:13;;;;;;;;;;;8.60;1.00;;;;;;5076505;28;19912;-83
2021/12/14 09:05:45;;;;;;;;;;;8.60;1.00;;;;;;5065657;28;19917;-85
2021/12/14 09:08:11;;;;;;;;;;;8.70;1.00;;;;;;5070608;28;19912;-82
2021/12/14 09:10:38;;;;;;;;;;;8.70;1.00;;;;;;5067665;28;20283;-82
2021/12/14 09:13:05;;;;;;;;;;;8.70;1.00;;;;;;5060114;28;19920;-82
2021/12/14 09:15:34;;;;;;;;;;;8.70;1.00;;;;;;5066937;28;19919;-82
2021/12/14 09:17:59;;;;;;;;;;;8.70;1.00;;;;;;5069265;28;19912;-82
2021/12/14 09:20:28;;;;;;;;;;;8.70;1.00;;;;;;5072452;28;20239;-81
2021/12/14 09:22:57;;;;;;;;;;;8.80;1.00;;;;;;5072021;28;19967;-82
2021/12/14 09:25:26;;;;;;;;;;;8.70;1.00;;;;;;5070877;28;19917;-82
2021/12/14 09:27:51;;;;;;;;;;;8.80;1.00;;;;;;5064180;28;19927;-82
2021/12/14 09:30:18;;;;;;;;;;;8.80;1.00;;;;;;5071836;28;19932;-82
2021/12/14 09:32:44;;;;;;;;;;;8.80;1.00;;;;;;5073431;28;19965;-82
2021/12/14 09:35:13;;;;;;;;;;;8.80;1.00;;;;;;5075789;28;19912;-82
2021/12/14 09:37:39;;;;;;;;;;;8.80;1.00;;;;;;5073040;28;19927;-82
2021/12/14 09:40:07;;;;;;;;;;;8.80;1.00;;;;;;5076069;28;19921;-82
2021/12/14 09:42:33;;;;;;;;;;;8.90;1.00;;;;;;5084757;28;20379;-82
2021/12/14 09:45:00;;;;;;;;;;;8.90;99.90;;;;;;5093797;28;19984;-82
2021/12/14 09:47:29;;;;;;;;;;;8.90;99.90;;;;;;5077048;28;20427;-82
2021/12/14 09:49:56;;;;;;;;;;;8.90;99.90;;;;;;5079507;28;19912;-82
2021/12/14 09:52:23;;;;;;;;;;;8.90;99.90;;;;;;5074613;28;19923;-82
2021/12/14 09:54:49;;;;;;;;;;;8.90;99.90;;;;;;5078478;28;19927;-82
2021/12/14 09:57:18;;;;;;;;;;;8.90;99.90;;;;;;5074915;28;20007;-82
2021/12/14 09:59:44;;;;;;;;;;;9.00;99.90;;;;;;5075990;28;20015;-82
2021/12/14 10:02:12;;;;;;;;;;;9.00;99.90;;;;;;5081435;28;19958;-82
2021/12/14 10:04:49;;;;;;;;;;;9.00;99.90;;;;;;5079114;28;19923;-82
2021/12/14 10:07:16;;;;;;;;;;;9.00;99.90;;;;;;5076472;28;19912;-82
2021/12/14 10:09:45;;;;;;;;;;;9.00;99.90;;;;;;5081361;28;19912;-82
2021/12/14 10:15:07;;;;;;;;;;;9.10;99.90;;;;;;5083235;28;19976;-82
2021/12/14 10:17:33;;;;;;;;;;;9.10;99.90;;;;;;5077810;28;19917;-82
2021/12/14 10:19:58;;;;;;;;;;;9.10;99.90;;;;;;5078566;28;19985;-82
2021/12/14 10:22:26;;;;;;;;;;;9.10;99.90;;;;;;5074891;28;19917;-82
2021/12/14 10:24:53;;;;;;;;;;;9.10;99.90;;;;;;5068179;28;19917;-82
2021/12/14 10:27:20;;;;;;;;;;;9.20;99.90;;;;;;5073964;28;19912;-82
2021/12/14 10:29:45;;;;;;;;;;;9.10;99.90;;;;;;5076136;28;20433;-82
2021/12/14 10:32:15;;;;;;;;;;;9.20;99.90;;;;;;5070643;28;19920;-82
2021/12/14 10:34:45;;;;;;;;;;;9.20;99.90;;;;;;5074476;28;19912;-82
2021/12/14 10:37:18;;;;;;;;;;;9.20;99.90;;;;;;5074217;28;19958;-82
2021/12/14 10:45:28;;;;;;;;;;;9.40;99.90;;;;;;5071417;28;19982;-80
2021/12/14 10:47:54;;;;;;;;;;;9.40;99.90;;;;;;5073939;28;19920;-81
2021/12/14 10:50:23;;;;;;;;;;;9.40;99.90;;;;;;5077680;28;19912;-80
2021/12/14 10:52:48;;;;;;;;;;;9.50;99.90;;;;;;5081901;28;19923;-80
2021/12/14 10:55:17;;;;;;;;;;;9.50;99.90;;;;;;5075633;28;20003;-81
2021/12/14 10:57:42;;;;;;;;;;;9.60;99.90;;;;;;5086672;28;19916;-81
2021/12/14 11:00:11;;;;;;;;;;;9.50;99.90;;;;;;5082249;28;19912;-81
2021/12/14 11:02:41;;;;;;;;;;;9.60;99.90;;;;;;5076677;28;19966;-82
2021/12/14 11:05:15;;;;;;;;;;;9.70;99.90;;;;;;5081725;28;19952;-82
2021/12/14 11:07:43;;;;;;;;;;;9.70;99.90;;;;;;5078107;28;19951;-81
2021/12/14 11:10:11;;;;;;;;;;;9.70;99.90;;;;;;5086657;28;19913;-81
2021/12/14 11:12:38;;;;;;;;;;;9.70;99.90;;;;;;5066508;28;19955;-81
2021/12/14 11:15:04;;;;;;;;;;;9.70;99.90;;;;;;5059039;28;19932;-81
2021/12/14 11:20:19;;;;;;;;;;;9.60;84.70;;;;;;5081698;28;19923;-82
2021/12/14 11:22:47;;;;;;;;;;;9.70;99.90;;;;;;5090528;28;19919;-82
2021/12/14 11:25:16;;;;;;;;;;;9.70;93.30;;;;;;5087933;28;20400;-82
2021/12/14 11:27:44;;;;;;;;;;;9.70;63.40;;;;;;5068097;28;19913;-82
2021/12/14 11:30:09;;;;;;;;;;;9.80;95.30;;;;;;5081735;28;19916;-82
2021/12/14 11:32:35;;;;;;;;;;;9.80;48.30;;;;;;5090715;28;19912;-82
2021/12/14 11:35:02;;;;;;;;;;;9.80;35.40;;;;;;5090105;28;19939;-82
2021/12/14 11:37:34;;;;;;;;;;;9.80;5.60;;;;;;5092031;28;19913;-82
2021/12/14 11:40:01;;;;;;;;;;;9.80;1.00;;;;;;5079529;28;20525;-82
2021/12/14 11:42:27;;;;;;;;;;;9.90;1.00;;;;;;5082196;28;19920;-82
2021/12/14 11:44:54;;;;;;;;;;;9.90;1.00;;;;;;5077472;28;19920;-81
2021/12/14 11:47:40;;;;;;;;;;;10.00;1.00;;;;;;5075634;28;20015;-82
2021/12/14 11:50:06;;;;;;;;;;;10.00;1.00;;;;;;5076083;28;20350;-82
2021/12/14 11:52:34;;;;;;;;;;;10.00;1.00;;;;;;5075218;28;19980;-82
2021/12/14 11:54:59;;;;;;;;;;;10.00;1.00;;;;;;5085740;28;19912;-82
2021/12/14 11:57:30;;;;;;;;;;;10.00;1.00;;;;;;5082452;28;20256;-82
2021/12/14 11:59:59;;;;;;;;;;;10.00;1.00;;;;;;5079946;28;19916;-83
2021/12/14 12:02:25;;;;;;;;;;;10.00;1.00;;;;;;5072136;28;19935;-83
2021/12/14 12:04:50;;;;;;;;;;;10.00;1.00;;;;;;5078383;28;19951;-83
2021/12/14 12:09:46;;;;;;;;;;;10.10;1.00;;;;;;5081603;28;19917;-83
2021/12/14 12:12:17;;;;;;;;;;;10.10;1.00;;;;;;5080768;28;19931;-83
2021/12/14 12:15:01;;;;;;;;;;;10.20;1.00;;;;;;5081065;28;19915;-83
2021/12/14 12:17:27;;;;;;;;;;;10.30;1.00;;;;;;5100031;28;19965;-83
2021/12/14 12:19:52;;;;;;;;;;;10.40;99.90;;;;;;5075380;28;19936;-83
2021/12/14 12:22:18;;;;;;;;;;;10.40;99.90;;;;;;5079209;28;19924;-84
2021/12/14 12:24:46;;;;;;;;;;;10.50;99.90;;;;;;5096436;28;19999;-83
2021/12/14 12:27:15;;;;;;;;;;;10.60;99.90;;;;;;5081721;28;19919;-83
2021/12/14 12:29:41;;;;;;;;;;;10.60;1.00;;;;;;5080626;28;20422;-83
2021/12/14 12:32:17;;;;;;;;;;;10.70;1.00;;;;;;5091251;28;19935;-83
2021/12/14 12:34:44;;;;;;;;;;;10.70;1.00;;;;;;5078261;28;19923;-83
2021/12/14 12:37:11;;;;;;;;;;;10.80;1.00;;;;;;5074890;28;19923;-83
2021/12/14 12:39:37;;;;;;;;;;;10.80;99.90;;;;;;5085398;28;19912;-83
2021/12/14 12:42:04;;;;;;;;;;;10.80;1.00;;;;;;5083979;28;20378;-84
2021/12/14 12:44:29;;;;;;;;;;;10.80;99.90;;;;;;5080299;28;19966;-83
2021/12/14 12:46:57;;;;;;;;;;;10.90;99.90;;;;;;5088890;28;20280;-83
2021/12/14 12:49:24;;;;;;;;;;;10.90;99.90;;;;;;5085337;28;19944;-84
2021/12/14 12:51:52;;;;;;;;;;;11.00;99.90;;;;;;5075968;28;20054;-82
2021/12/14 12:54:20;;;;;;;;;;;11.00;99.90;;;;;;5070063;28;19912;-82
2021/12/14 12:56:51;;;;;;;;;;;11.00;6.00;;;;;;5085271;28;19962;-81
2021/12/14 12:59:36;;;;;;;;;;;11.00;1.00;;;;;;5080844;28;19912;-83
2021/12/14 13:02:17;;;;;;;;;;;11.00;1.00;;;;;;5080468;28;19920;-82
2021/12/14 13:04:45;;;;;;;;;;;11.00;1.00;;;;;;5069160;28;19916;-83
2021/12/14 13:07:10;;;;;;;;;;;10.90;99.90;;;;;;5087497;28;20378;-81
2021/12/14 13:09:56;;;;;;;;;;;11.00;99.90;;;;;;5074073;28;19920;-83
2021/12/14 13:12:41;;;;;;;;;;;11.00;99.90;;;;;;5076195;28;20066;-81
2021/12/14 13:15:25;;;;;;;;;;;11.00;99.90;;;;;;5086004;28;19912;-82
2021/12/14 13:18:11;;;;;;;;;;;10.90;99.90;;;;;;5089610;28;19948;-81
2021/12/14 13:20:36;;;;;;;;;;;10.90;99.90;;;;;;5078296;28;20376;-81
2021/12/14 13:23:02;;;;;;;;;;;10.80;99.90;;;;;;5071162;28;19920;-81
2021/12/14 13:25:34;;;;;;;;;;;10.80;99.90;;;;;;5076848;28;19940;-81
2021/12/14 13:28:00;;;;;;;;;;;10.80;99.90;;;;;;5074538;28;20395;-81
2021/12/14 13:30:27;;;;;;;;;;;10.80;99.90;;;;;;5080391;28;19908;-82
2021/12/14 13:32:52;;;;;;;;;;;10.80;1.00;;;;;;5078951;28;19969;-81
2021/12/14 13:35:21;;;;;;;;;;;10.80;1.00;;;;;;5075274;28;19975;-82
2021/12/14 13:37:48;;;;;;;;;;;10.70;1.00;;;;;;5077494;28;19913;-82
2021/12/14 13:40:17;;;;;;;;;;;10.70;1.00;;;;;;5070415;28;19916;-82
2021/12/14 13:43:01;;;;;;;;;;;10.70;1.00;;;;;;5074491;28;19915;-81
2021/12/14 13:45:28;;;;;;;;;;;10.70;1.00;;;;;;5075559;28;19912;-82
2021/12/14 13:47:55;;;;;;;;;;;10.80;1.00;;;;;;5083243;28;19917;-82
2021/12/14 13:50:27;;;;;;;;;;;10.70;1.00;;;;;;5076214;28;19912;-82
2021/12/14 13:52:53;;;;;;;;;;;10.80;1.00;;;;;;5076717;28;19912;-82
2021/12/14 13:55:54;;;;;;;;;;;10.70;1.00;;;;;;5079889;28;19913;-82
2021/12/14 13:58:24;;;;;;;;;;;10.70;1.00;;;;;;5011320;28;20472;-82
2021/12/14 14:00:52;;;;;;;;;;;10.70;1.00;;;;;;5072062;28;19912;-82
2021/12/14 14:03:18;;;;;;;;;;;10.60;8.10;;;;;;5069308;28;20533;-82
2021/12/14 14:05:44;;;;;;;;;;;10.60;99.90;;;;;;5078156;28;19917;-81
2021/12/14 14:08:13;;;;;;;;;;;10.60;99.90;;;;;;5080203;28;19924;-82
2021/12/14 14:10:39;;;;;;;;;;;10.50;99.90;;;;;;5077662;28;19916;-82
2021/12/14 14:13:10;;;;;;;;;;;10.50;99.90;;;;;;5069135;28;19924;-82
2021/12/14 14:15:37;;;;;;;;;;;10.50;1.00;;;;;;5079721;28;19912;-82
2021/12/14 14:18:04;;;;;;;;;;;10.50;1.00;;;;;;5076605;28;20451;-82
2021/12/14 14:20:32;;;;;;;;;;;10.50;1.00;;;;;;5072110;28;19913;-82
2021/12/14 14:23:16;;;;;;;;;;;10.50;1.00;;;;;;5083991;28;19908;-82
2021/12/14 14:25:46;;;;;;;;;;;10.50;1.00;;;;;;5085400;28;20306;-82
2021/12/14 14:28:29;;;;;;;;;;;10.50;1.00;;;;;;5089245;28;19976;-82
2021/12/14 14:30:56;;;;;;;;;;;10.50;1.00;;;;;;5081726;28;19937;-82
2021/12/14 14:33:29;;;;;;;;;;;10.50;1.00;;;;;;5092106;28;19913;-83
2021/12/14 14:36:04;;;;;;;;;;;10.50;1.00;;;;;;5086785;28;19920;-82
2021/12/14 14:38:41;;;;;;;;;;;10.50;1.00;;;;;;5089892;28;19948;-82
2021/12/14 14:41:09;;;;;;;;;;;10.50;2.50;;;;;;5081085;28;20034;-82
2021/12/14 14:43:53;;;;;;;;;;;10.50;27.40;;;;;;5080738;28;19918;-83
2021/12/14 14:46:37;;;;;;;;;;;10.50;56.00;;;;;;5079465;28;19912;-83
2021/12/14 14:49:03;;;;;;;;;;;10.50;99.90;;;;;;5081425;28;19916;-82
2021/12/14 14:51:46;;;;;;;;;;;10.40;99.90;;;;;;5087552;28;19913;-83
2021/12/14 14:54:30;;;;;;;;;;;10.40;99.90;;;;;;5073877;28;19917;-82
2021/12/14 14:57:16;;;;;;;;;;;10.40;99.90;;;;;;5079118;28;20307;-83
2021/12/14 14:59:54;;;;;;;;;;;10.40;99.90;;;;;;5074635;28;20398;-84
2021/12/14 15:02:43;;;;;;;;;;;10.30;99.90;;;;;;5083864;28;19915;-84
2021/12/14 15:05:12;;;;;;;;;;;10.30;99.90;;;;;;5077969;28;19917;-83
2021/12/14 15:07:56;;;;;;;;;;;10.20;99.90;;;;;;5078264;28;19971;-84
2021/12/14 15:10:24;;;;;;;;;;;10.20;1.00;;;;;;5064818;28;20346;-84
2021/12/14 15:13:10;;;;;;;;;;;10.10;1.00;;;;;;5076499;28;19995;-84
2021/12/14 15:15:35;;;;;;;;;;;10.10;1.00;;;;;;5062362;28;19974;-84
2021/12/14 15:18:03;;;;;;;;;;;10.00;1.00;;;;;;5060397;28;20312;-83
2021/12/14 15:20:33;;;;;;;;;;;10.00;1.00;;;;;;5065471;28;19944;-83
2021/12/14 15:23:00;;;;;;;;;;;9.90;20.20;;;;;;5075183;28;19913;-83
2021/12/14 15:25:30;;;;;;;;;;;9.90;96.70;;;;;;5080641;28;19916;-82
2021/12/14 15:28:00;;;;;;;;;;;9.90;99.90;;;;;;5079885;28;19915;-83
2021/12/14 15:30:26;;;;;;;;;;;9.90;99.90;;;;;;5079625;28;20001;-83
2021/12/14 15:33:03;;;;;;;;;;;9.80;99.90;;;;;;5079609;28;20380;-83